Time;durP1;ratioP1;P1;durP2;ratioP2;P2;SDS_P1;SDS_P2;PMS_P1;PMS_P2;Temp;Humidity;BMP_temperature;BMP_pressure;BME280_temperature;BME280_humidity;BME280_pressure;Samples;Min_cycle;Max_cycle;Signal;HPM_P1;HPM_P2
2021/12/26 00:00:40;;;;;;;124.20;32.40;;;;;;;-11.70;91.92;99303.60;103861;1316;24301;-30
2021/12/26 00:03:06;;;;;;;119.10;34.70;;;;;;;-11.81;91.77;99302.81;103526;1315;24139;-25
2021/12/26 00:05:32;;;;;;;90.20;29.10;;;;;;;-11.82;92.40;99299.75;103826;1316;24150;-30
2021/12/26 00:07:58;;;;;;;71.30;25.70;;;;;;;-11.81;92.73;99295.02;103570;1313;24376;-28
2021/12/26 00:10:25;;;;;;;254.20;62.40;;;;;;;-11.81;93.19;99297.82;103536;1302;22475;-30
2021/12/26 00:12:51;;;;;;;217.60;46.80;;;;;;;-11.87;93.36;99298.38;103790;1314;24598;-28
2021/12/26 00:15:17;;;;;;;253.00;47.90;;;;;;;-11.99;92.64;99294.71;103811;1312;24107;-29
2021/12/26 00:17:42;;;;;;;115.50;28.30;;;;;;;-12.11;92.48;99297.77;103949;1313;24151;-29
2021/12/26 00:20:09;;;;;;;126.40;29.60;;;;;;;-12.22;92.30;99304.05;103653;1312;24272;-25
2021/12/26 00:22:35;;;;;;;94.50;27.80;;;;;;;-12.22;93.85;99303.36;103486;1313;24159;-25
2021/12/26 00:25:02;;;;;;;90.90;26.50;;;;;;;-12.05;95.62;99299.77;103837;1313;24248;-28
2021/12/26 00:27:28;;;;;;;118.10;30.00;;;;;;;-11.88;95.85;99297.08;103829;1311;24322;-30
2021/12/26 00:29:54;;;;;;;80.00;30.50;;;;;;;-11.79;95.35;99294.96;103727;1312;24227;-29
2021/12/26 00:32:20;;;;;;;81.20;25.30;;;;;;;-11.75;94.98;99295.67;103861;1312;24154;-28
2021/12/26 00:34:45;;;;;;;85.10;28.80;;;;;;;-11.73;94.59;99294.02;103686;1313;22835;-29
2021/12/26 00:37:12;;;;;;;112.50;31.20;;;;;;;-11.71;94.20;99291.03;103505;1310;24242;-29
2021/12/26 00:39:37;;;;;;;129.50;34.40;;;;;;;-11.78;93.54;99290.92;103676;1314;24151;-30
2021/12/26 00:42:04;;;;;;;102.90;30.90;;;;;;;-11.82;93.19;99286.79;103757;1315;24261;-27
2021/12/26 00:44:30;;;;;;;89.20;29.90;;;;;;;-11.86;92.98;99287.13;103784;1314;24134;-25
2021/12/26 00:46:55;;;;;;;158.70;48.50;;;;;;;-11.87;92.92;99281.16;103796;1311;24374;-25
2021/12/26 00:49:22;;;;;;;130.30;35.90;;;;;;;-11.85;92.43;99277.96;103679;1308;24254;-29
2021/12/26 00:51:49;;;;;;;74.00;23.80;;;;;;;-11.73;93.50;99286.95;103701;1312;23909;-29
2021/12/26 00:54:15;;;;;;;69.60;23.00;;;;;;;-11.59;94.11;99289.34;103819;1313;24234;-29
2021/12/26 00:56:41;;;;;;;56.00;17.90;;;;;;;-11.55;94.41;99284.70;104042;1314;24144;-26
2021/12/26 00:59:07;;;;;;;62.60;21.20;;;;;;;-11.50;94.17;99287.43;103890;1312;24178;-25
2021/12/26 01:01:33;;;;;;;66.10;21.60;;;;;;;-11.54;93.11;99290.52;103877;1314;24192;-25
2021/12/26 01:03:59;;;;;;;89.70;19.90;;;;;;;-11.62;92.28;99287.05;103736;1313;24121;-25
2021/12/26 01:06:27;;;;;;;63.60;16.80;;;;;;;-11.65;92.30;99291.15;103762;1302;24193;-25
2021/12/26 01:08:53;;;;;;;67.40;15.90;;;;;;;-11.74;91.87;99290.27;103872;1292;24303;-29
2021/12/26 01:11:33;;;;;;;57.30;19.30;;;;;;;-11.77;92.15;99289.36;103904;1310;24238;-29
2021/12/26 01:14:00;;;;;;;71.90;21.00;;;;;;;-11.78;92.49;99286.61;103803;1315;24262;-25
2021/12/26 01:16:27;;;;;;;76.50;22.80;;;;;;;-11.90;91.73;99286.80;103802;1313;24263;-25
2021/12/26 01:19:00;;;;;;;70.50;20.50;;;;;;;-11.97;92.12;99288.80;103731;1312;24262;-29
2021/12/26 01:21:26;;;;;;;78.50;24.30;;;;;;;-11.98;92.05;99285.39;103754;1310;24158;-29
2021/12/26 01:23:55;;;;;;;113.60;28.00;;;;;;;-12.00;92.63;99286.81;103774;1314;22798;-26
2021/12/26 01:26:23;;;;;;;73.10;22.10;;;;;;;-12.04;92.33;99286.95;103948;1316;22964;-29
2021/12/26 01:28:49;;;;;;;104.60;27.00;;;;;;;-12.02;93.33;99285.34;103656;1312;22475;-26
2021/12/26 01:31:18;;;;;;;133.70;37.20;;;;;;;-11.94;93.87;99288.31;103771;1312;24247;-26
2021/12/26 01:33:47;;;;;;;129.20;35.80;;;;;;;-12.02;92.98;99291.23;103647;1312;22472;-31
2021/12/26 01:36:13;;;;;;;159.20;36.40;;;;;;;-12.11;92.16;99288.63;103685;1310;22466;-29
2021/12/26 01:38:38;;;;;;;175.60;32.80;;;;;;;-12.23;91.91;99286.45;103747;1312;24158;-27
2021/12/26 01:41:09;;;;;;;105.10;26.30;;;;;;;-12.32;91.58;99292.34;103656;1312;22554;-29
2021/12/26 01:43:36;;;;;;;118.40;29.00;;;;;;;-12.40;91.33;99291.77;103740;1307;24161;-29
2021/12/26 01:46:02;;;;;;;76.20;19.90;;;;;;;-12.44;91.39;99290.37;103703;1310;24255;-26
2021/12/26 01:48:28;;;;;;;87.20;25.60;;;;;;;-12.43;91.87;99288.45;103686;1305;24247;-29
2021/12/26 01:50:54;;;;;;;174.80;36.10;;;;;;;-12.39;91.97;99285.85;103734;1310;24158;-25
2021/12/26 01:53:23;;;;;;;104.80;28.00;;;;;;;-12.37;91.71;99281.63;103514;1312;24146;-29
2021/12/26 01:55:51;;;;;;;51.80;16.00;;;;;;;-12.32;92.42;99278.89;103672;1316;22809;-25
2021/12/26 01:58:20;;;;;;;51.10;17.00;;;;;;;-12.23;93.70;99277.14;103657;1311;24123;-25
2021/12/26 02:00:49;;;;;;;44.30;15.20;;;;;;;-12.17;92.98;99280.05;103713;1314;24150;-25
2021/12/26 02:03:15;;;;;;;63.70;18.50;;;;;;;-12.19;92.04;99275.46;103721;1313;24110;-25
2021/12/26 02:05:41;;;;;;;81.60;21.50;;;;;;;-12.30;91.36;99282.42;103466;1307;24158;-25
2021/12/26 02:08:07;;;;;;;60.70;19.60;;;;;;;-12.38;91.64;99280.84;103516;1312;22455;-25
2021/12/26 02:10:33;;;;;;;55.60;17.90;;;;;;;-12.44;91.46;99277.23;103701;1312;24221;-26
2021/12/26 02:12:59;;;;;;;72.40;20.00;;;;;;;-12.49;91.37;99276.05;103468;1310;24120;-30
2021/12/26 02:15:25;;;;;;;59.70;20.70;;;;;;;-12.50;91.53;99275.77;103730;1304;24450;-25
2021/12/26 02:17:51;;;;;;;71.20;17.00;;;;;;;-12.45;92.06;99276.27;103731;1312;24185;-29
2021/12/26 02:20:20;;;;;;;45.30;12.40;;;;;;;-12.36;92.40;99272.97;103528;1313;24133;-26
2021/12/26 02:22:51;;;;;;;52.50;14.50;;;;;;;-12.29;92.82;99274.08;103726;1308;23880;-26
2021/12/26 02:27:46;;;;;;;46.90;16.00;;;;;;;-12.22;92.31;99274.02;103682;1311;24144;-30
2021/12/26 02:30:13;;;;;;;29.30;8.60;;;;;;;-12.22;92.03;99270.05;103687;1308;24219;-29
2021/12/26 02:32:39;;;;;;;35.90;12.00;;;;;;;-12.19;92.36;99273.77;103547;1310;24157;-25
2021/12/26 02:35:05;;;;;;;36.00;10.80;;;;;;;-12.20;91.99;99272.73;103685;1316;24256;-32
2021/12/26 02:37:31;;;;;;;42.70;11.40;;;;;;;-12.24;91.98;99273.39;103767;1304;24162;-29
2021/12/26 02:39:57;;;;;;;30.00;10.60;;;;;;;-12.26;92.47;99277.63;103734;1316;24155;-29
2021/12/26 02:42:23;;;;;;;42.00;11.00;;;;;;;-12.33;91.68;99286.33;103683;1302;22745;-26
2021/12/26 02:44:49;;;;;;;35.30;10.80;;;;;;;-12.38;91.50;99286.67;103530;1314;24264;-29
2021/12/26 02:47:32;;;;;;;30.20;11.80;;;;;;;-12.40;91.76;99288.99;103672;1304;24189;-25
2021/12/26 02:50:00;;;;;;;53.40;16.00;;;;;;;-12.32;93.22;99281.45;103733;1314;24122;-26
2021/12/26 02:52:26;;;;;;;44.80;11.80;;;;;;;-12.34;92.97;99290.00;103693;1314;24144;-25
2021/12/26 02:54:52;;;;;;;89.10;22.80;;;;;;;-12.41;93.14;99288.70;103733;1307;24210;-25
2021/12/26 02:57:19;;;;;;;117.10;29.00;;;;;;;-12.37;93.58;99291.13;103435;1312;24258;-25
2021/12/26 02:59:45;;;;;;;137.40;28.50;;;;;;;-12.21;95.72;99289.84;103671;1314;24196;-29
2021/12/26 03:02:11;;;;;;;64.40;16.80;;;;;;;-12.16;95.76;99291.93;103714;1315;24281;-25
2021/12/26 03:04:37;;;;;;;59.10;14.90;;;;;;;-12.21;94.84;99295.21;103794;1307;22456;-29
2021/12/26 03:07:03;;;;;;;50.90;16.70;;;;;;;-12.33;93.73;99296.16;103732;1310;24222;-25
2021/12/26 03:09:33;;;;;;;60.40;15.30;;;;;;;-12.48;92.78;99296.86;103716;1310;24151;-25
2021/12/26 03:11:59;;;;;;;49.70;18.90;;;;;;;-12.45;92.99;99294.88;103740;1305;23832;-30
2021/12/26 03:14:25;;;;;;;55.40;16.60;;;;;;;-12.50;92.57;99296.44;103706;1311;24189;-29
2021/12/26 03:16:51;;;;;;;57.70;18.50;;;;;;;-12.59;92.06;99294.00;103701;1312;24132;-29
2021/12/26 03:19:17;;;;;;;49.00;15.20;;;;;;;-12.53;93.70;99297.73;103539;1307;24213;-26
2021/12/26 03:21:43;;;;;;;57.20;19.70;;;;;;;-12.44;94.36;99300.37;103747;1310;24212;-25
2021/12/26 03:24:09;;;;;;;129.10;34.60;;;;;;;-12.39;94.96;99297.41;103676;1314;24257;-26
2021/12/26 03:26:35;;;;;;;105.20;32.90;;;;;;;-12.40;94.28;99296.92;103686;1314;24165;-25
2021/12/26 03:29:02;;;;;;;105.60;23.00;;;;;;;-12.40;93.87;99296.43;103616;1304;24262;-25
2021/12/26 03:31:28;;;;;;;46.90;18.20;;;;;;;-12.30;94.27;99292.23;103711;1313;24275;-28
2021/12/26 03:33:54;;;;;;;57.40;20.30;;;;;;;-12.30;93.71;99294.69;103667;1314;24140;-25
2021/12/26 03:36:20;;;;;;;58.40;18.40;;;;;;;-12.34;93.47;99293.60;103703;1314;24133;-25
2021/12/26 03:38:45;;;;;;;73.00;20.00;;;;;;;-12.29;94.47;99293.95;103653;1314;24190;-25
2021/12/26 03:41:11;;;;;;;108.20;31.40;;;;;;;-12.37;93.80;99295.09;103672;1312;25354;-29
2021/12/26 03:43:37;;;;;;;74.70;26.30;;;;;;;-12.45;93.14;99300.77;103682;1316;24196;-29
2021/12/26 03:46:03;;;;;;;89.20;23.00;;;;;;;-12.49;92.68;99298.31;103700;1314;24405;-29
2021/12/26 03:48:29;;;;;;;58.70;15.80;;;;;;;-12.56;92.54;99299.73;103752;1313;24261;-29
2021/12/26 03:50:57;;;;;;;58.20;17.70;;;;;;;-12.54;92.80;99302.28;103685;1304;24266;-29
2021/12/26 03:53:23;;;;;;;39.00;12.10;;;;;;;-12.46;92.80;99304.56;103631;1310;24221;-29
2021/12/26 03:55:49;;;;;;;44.70;11.40;;;;;;;-12.37;92.46;99307.85;103689;1310;24375;-25
2021/12/26 03:58:15;;;;;;;28.40;10.50;;;;;;;-12.36;92.24;99310.60;103428;1313;427598;-29
2021/12/26 04:00:41;;;;;;;26.60;9.30;;;;;;;-12.46;91.76;99313.19;103730;1312;24272;-29
2021/12/26 04:03:07;;;;;;;25.80;7.90;;;;;;;-12.51;92.05;99312.70;103462;1310;24155;-25
2021/12/26 04:05:34;;;;;;;30.90;9.90;;;;;;;-12.59;91.89;99314.15;103718;1314;24148;-29
2021/12/26 04:08:00;;;;;;;25.40;9.50;;;;;;;-12.60;91.90;99319.40;103709;1314;22462;-26
2021/12/26 04:10:26;;;;;;;22.50;6.80;;;;;;;-12.71;92.15;99323.36;103714;1310;23523;-25
2021/12/26 04:12:54;;;;;;;26.90;7.90;;;;;;;-12.83;92.16;99322.92;103727;1314;24235;-29
2021/12/26 04:15:21;;;;;;;32.60;10.30;;;;;;;-12.90;92.19;99322.67;103704;1316;24132;-25
2021/12/26 04:17:48;;;;;;;45.20;10.90;;;;;;;-12.94;92.63;99323.46;103693;1313;24257;-29
2021/12/26 04:20:14;;;;;;;35.40;11.30;;;;;;;-12.91;93.10;99323.20;103701;1312;24157;-29
2021/12/26 04:22:40;;;;;;;28.20;11.40;;;;;;;-12.83;93.05;99321.92;103523;1313;24338;-25
2021/12/26 04:25:06;;;;;;;23.70;11.40;;;;;;;-12.80;92.93;99319.55;103660;1313;24144;-29
2021/12/26 04:27:33;;;;;;;34.90;12.30;;;;;;;-12.73;93.56;99321.91;103538;1314;25355;-29
2021/12/26 04:30:00;;;;;;;37.80;12.30;;;;;;;-12.70;93.52;99317.83;103748;1314;24348;-25
2021/12/26 04:32:26;;;;;;;32.70;9.10;;;;;;;-12.71;93.17;99322.86;103687;1310;24288;-25
2021/12/26 04:34:52;;;;;;;38.40;11.90;;;;;;;-12.77;93.38;99323.58;103798;1304;24291;-27
2021/12/26 04:37:18;;;;;;;76.40;20.90;;;;;;;-12.78;93.30;99326.89;103605;1304;24186;-29
2021/12/26 04:39:43;;;;;;;48.60;16.90;;;;;;;-12.90;92.73;99321.95;103701;1313;24236;-29
2021/12/26 04:42:10;;;;;;;41.10;14.00;;;;;;;-12.99;92.34;99322.45;103707;1314;24263;-25
2021/12/26 04:44:36;;;;;;;37.90;11.10;;;;;;;-12.98;93.09;99324.63;103778;1314;24303;-25
2021/12/26 04:47:02;;;;;;;39.60;12.00;;;;;;;-12.87;92.98;99325.51;103664;1304;24146;-29
2021/12/26 04:49:28;;;;;;;27.40;9.50;;;;;;;-12.83;93.33;99325.86;103761;1305;24145;-26
2021/12/26 04:51:53;;;;;;;25.90;8.30;;;;;;;-12.75;93.67;99319.36;103690;1314;23093;-29
2021/12/26 04:54:19;;;;;;;20.50;8.00;;;;;;;-12.76;93.44;99317.84;103739;1313;24164;-25
2021/12/26 04:56:46;;;;;;;13.00;6.40;;;;;;;-12.77;93.54;99316.36;103718;1314;24150;-26
2021/12/26 04:59:12;;;;;;;27.00;10.00;;;;;;;-12.76;93.52;99315.45;103528;1307;24152;-29
2021/12/26 05:01:39;;;;;;;31.40;8.40;;;;;;;-12.81;92.50;99318.92;103627;1314;24185;-28
2021/12/26 05:04:05;;;;;;;36.00;8.20;;;;;;;-12.84;92.10;99321.92;103523;1307;24340;-29
2021/12/26 05:06:31;;;;;;;18.90;5.30;;;;;;;-12.91;91.73;99321.84;103785;1313;24144;-25
2021/12/26 05:08:57;;;;;;;18.50;7.40;;;;;;;-13.02;91.49;99322.23;103768;1314;24087;-27
2021/12/26 05:11:23;;;;;;;14.80;6.20;;;;;;;-13.09;91.22;99324.00;103648;1315;24205;-29
2021/12/26 05:13:49;;;;;;;47.10;9.60;;;;;;;-13.10;92.13;99327.13;103694;1314;24157;-26
2021/12/26 05:16:15;;;;;;;27.40;6.70;;;;;;;-13.06;91.94;99333.89;103630;1304;24151;-25
2021/12/26 05:18:41;;;;;;;28.10;9.10;;;;;;;-13.10;91.19;99332.98;103709;1314;24301;-29
2021/12/26 05:21:07;;;;;;;24.50;8.00;;;;;;;-13.15;91.13;99332.61;103723;1311;24204;-29
2021/12/26 05:23:32;;;;;;;30.70;7.60;;;;;;;-13.16;91.24;99330.58;103736;1310;24150;-29
2021/12/26 05:25:58;;;;;;;16.70;7.30;;;;;;;-13.16;92.11;99333.67;103649;1313;24121;-25
2021/12/26 05:28:24;;;;;;;19.40;7.10;;;;;;;-13.13;92.14;99336.52;103703;1310;24370;-29
2021/12/26 05:30:50;;;;;;;19.50;5.40;;;;;;;-13.10;92.29;99339.55;103728;1314;22446;-30
2021/12/26 05:33:16;;;;;;;32.40;9.20;;;;;;;-13.03;93.01;99346.70;103774;1314;24156;-30
2021/12/26 05:35:42;;;;;;;26.30;7.30;;;;;;;-13.01;92.82;99345.77;103734;1313;24238;-29
2021/12/26 05:38:08;;;;;;;28.90;8.70;;;;;;;-13.01;92.61;99346.98;103637;1313;24219;-29
2021/12/26 05:40:34;;;;;;;27.80;9.60;;;;;;;-13.00;92.71;99348.48;103678;1304;24133;-25
2021/12/26 05:43:00;;;;;;;20.50;7.70;;;;;;;-12.95;93.55;99353.85;103702;1313;24282;-29
2021/12/26 05:45:26;;;;;;;24.40;7.40;;;;;;;-12.92;93.67;99357.20;103674;1310;24173;-25
2021/12/26 05:47:52;;;;;;;29.80;7.50;;;;;;;-12.91;93.77;99359.58;103502;1313;24135;-30
2021/12/26 05:50:19;;;;;;;12.30;5.70;;;;;;;-12.92;93.33;99362.36;103729;1313;24133;-25
2021/12/26 05:52:45;;;;;;;18.00;6.10;;;;;;;-12.89;92.95;99357.80;103752;1311;24132;-25
2021/12/26 05:55:11;;;;;;;17.30;6.70;;;;;;;-12.87;93.97;99353.57;103641;1307;24148;-25
2021/12/26 05:57:36;;;;;;;41.70;7.60;;;;;;;-13.07;93.42;99356.83;103696;1314;24136;-29
2021/12/26 06:00:06;;;;;;;74.80;16.00;;;;;;;-13.25;92.69;99363.47;103678;1310;24156;-29
2021/12/26 06:02:31;;;;;;;52.80;15.70;;;;;;;-13.43;92.13;99365.60;103696;1307;24194;-29
2021/12/26 06:04:57;;;;;;;51.80;20.80;;;;;;;-13.61;91.99;99363.38;103702;1314;24135;-28
2021/12/26 06:07:23;;;;;;;78.60;27.10;;;;;;;-13.59;92.21;99360.23;103740;1310;22955;-28
2021/12/26 06:09:49;;;;;;;41.00;16.80;;;;;;;-13.53;92.76;99355.40;103690;1310;24189;-25
2021/12/26 06:12:16;;;;;;;41.00;13.70;;;;;;;-13.39;92.65;99356.17;103721;1314;24210;-29
2021/12/26 06:14:42;;;;;;;123.40;26.90;;;;;;;-13.34;93.15;99355.84;103693;1314;24191;-25
2021/12/26 06:17:09;;;;;;;62.00;17.50;;;;;;;-13.36;92.92;99356.58;103541;1314;24132;-29
2021/12/26 06:19:34;;;;;;;45.90;13.10;;;;;;;-13.38;92.68;99360.09;103696;1314;22547;-29
2021/12/26 06:22:02;;;;;;;61.90;19.20;;;;;;;-13.38;92.49;99364.23;103730;1314;24297;-29
2021/12/26 06:24:29;;;;;;;68.40;20.30;;;;;;;-13.29;93.29;99367.92;103566;1302;22834;-25
2021/12/26 06:26:55;;;;;;;64.30;18.40;;;;;;;-13.24;93.42;99367.73;103719;1298;22447;-29
2021/12/26 06:29:21;;;;;;;34.70;10.80;;;;;;;-13.27;92.87;99371.48;103708;1313;24187;-26
2021/12/26 06:31:47;;;;;;;53.10;16.80;;;;;;;-13.27;92.86;99378.52;103699;1314;24269;-26
2021/12/26 06:34:14;;;;;;;67.80;17.10;;;;;;;-13.19;93.94;99376.33;103706;1307;22590;-26
2021/12/26 06:36:39;;;;;;;110.90;27.90;;;;;;;-13.20;93.30;99374.82;103712;1314;24291;-30
2021/12/26 06:39:05;;;;;;;135.00;29.20;;;;;;;-13.27;93.05;99370.42;103749;1305;24367;-28
2021/12/26 06:41:33;;;;;;;81.40;24.00;;;;;;;-13.25;92.32;99370.18;103724;1310;24167;-25
2021/12/26 06:43:58;;;;;;;74.20;24.30;;;;;;;-13.22;93.25;99373.33;103736;1315;22487;-25
2021/12/26 06:46:24;;;;;;;74.40;20.10;;;;;;;-13.13;93.88;99374.78;103678;1311;24165;-25
2021/12/26 06:48:50;;;;;;;47.90;14.70;;;;;;;-13.17;93.40;99375.77;103670;1313;22462;-25
2021/12/26 06:51:17;;;;;;;99.60;35.20;;;;;;;-13.17;93.11;99380.23;103722;1311;24256;-25
2021/12/26 06:53:42;;;;;;;65.50;22.70;;;;;;;-13.23;92.63;99382.83;103689;1313;24149;-30
2021/12/26 06:56:09;;;;;;;39.50;13.30;;;;;;;-13.28;92.77;99382.52;103776;1314;24265;-29
2021/12/26 06:58:34;;;;;;;24.30;8.70;;;;;;;-13.21;93.71;99381.23;103717;1313;24238;-25
2021/12/26 07:01:02;;;;;;;53.10;12.10;;;;;;;-13.15;93.51;99385.00;103776;1314;24201;-30
2021/12/26 07:03:28;;;;;;;87.60;23.70;;;;;;;-13.04;93.32;99387.92;103696;1313;24272;-25
2021/12/26 07:05:54;;;;;;;55.00;20.60;;;;;;;-12.93;93.50;99390.15;103546;1316;24174;-25
2021/12/26 07:08:20;;;;;;;78.10;14.40;;;;;;;-12.84;93.33;99392.11;103720;1307;24207;-25
2021/12/26 07:10:45;;;;;;;31.30;9.30;;;;;;;-12.85;92.92;99389.35;103692;1310;24410;-25
2021/12/26 07:13:11;;;;;;;34.70;12.40;;;;;;;-12.78;93.21;99393.26;103629;1314;24246;-29
2021/12/26 07:15:37;;;;;;;24.00;8.90;;;;;;;-12.77;92.85;99394.97;103711;1313;24158;-27
2021/12/26 07:18:03;;;;;;;41.00;11.40;;;;;;;-12.70;93.77;99392.83;103734;1310;24132;-30
2021/12/26 07:20:29;;;;;;;93.40;26.00;;;;;;;-12.70;93.26;99393.70;103734;1314;24384;-29
2021/12/26 07:22:55;;;;;;;101.40;35.20;;;;;;;-12.73;93.21;99394.48;103714;1313;24103;-30
2021/12/26 07:25:21;;;;;;;100.70;26.30;;;;;;;-12.68;94.13;99393.10;103680;1311;24249;-29
2021/12/26 07:27:47;;;;;;;54.60;17.80;;;;;;;-12.43;95.97;99395.54;103729;1314;22687;-29
2021/12/26 07:30:13;;;;;;;62.20;21.90;;;;;;;-12.28;96.43;99397.93;103460;1314;24110;-29
2021/12/26 07:32:40;;;;;;;43.10;18.10;;;;;;;-12.29;95.52;99399.00;103796;1314;22449;-26
2021/12/26 07:35:07;;;;;;;80.10;27.10;;;;;;;-12.27;95.24;99403.26;103742;1302;22450;-30
2021/12/26 07:37:32;;;;;;;83.30;28.30;;;;;;;-12.12;95.79;99400.14;103675;1313;24148;-29
2021/12/26 07:39:58;;;;;;;70.80;24.40;;;;;;;-11.98;95.65;99402.76;103777;1304;22459;-29
2021/12/26 07:42:24;;;;;;;53.00;19.20;;;;;;;-11.85;96.01;99408.48;103499;1307;24159;-26
2021/12/26 07:44:50;;;;;;;166.10;43.40;;;;;;;-11.75;95.93;99410.50;103689;1302;22487;-25
2021/12/26 07:47:16;;;;;;;365.30;105.70;;;;;;;-11.66;95.64;99415.87;103588;1314;23883;-26
2021/12/26 07:49:42;;;;;;;233.70;59.20;;;;;;;-11.56;95.14;99413.08;103787;1313;22481;-29
2021/12/26 07:52:13;;;;;;;236.40;58.50;;;;;;;-11.45;94.85;99405.58;103723;1314;24132;-29
2021/12/26 07:54:40;;;;;;;284.40;67.80;;;;;;;-11.21;95.03;99407.95;103768;1315;22691;-25
2021/12/26 07:57:07;;;;;;;191.40;49.00;;;;;;;-11.23;93.90;99408.02;103635;1314;24116;-27
2021/12/26 07:59:33;;;;;;;221.90;48.20;;;;;;;-11.15;93.99;99411.84;103738;1310;24358;-29
2021/12/26 08:02:00;;;;;;;98.40;25.60;;;;;;;-10.93;94.37;99412.52;103516;1307;24202;-25
2021/12/26 08:04:27;;;;;;;81.90;20.20;;;;;;;-10.86;94.26;99417.41;103755;1310;22560;-29
2021/12/26 08:06:53;;;;;;;41.20;13.60;;;;;;;-10.81;93.99;99418.94;103708;1311;24147;-26
2021/12/26 08:09:19;;;;;;;78.90;24.00;;;;;;;-10.74;93.98;99411.57;103533;1314;24265;-29
2021/12/26 08:11:44;;;;;;;133.70;35.90;;;;;;;-10.66;93.88;99411.42;103675;1303;24243;-26
2021/12/26 08:14:10;;;;;;;66.50;20.30;;;;;;;-10.45;94.09;99405.55;103712;1314;24192;-30
2021/12/26 08:16:36;;;;;;;34.00;11.20;;;;;;;-10.23;94.38;99403.70;103758;1310;24381;-29
2021/12/26 08:19:03;;;;;;;39.00;11.10;;;;;;;-10.04;94.84;99405.81;103740;1310;22582;-29
2021/12/26 08:21:29;;;;;;;25.30;10.20;;;;;;;-9.92;94.41;99404.25;103560;1307;24212;-25
2021/12/26 08:23:55;;;;;;;85.20;22.00;;;;;;;-9.83;94.06;99400.37;103770;1313;24430;-29
2021/12/26 08:26:21;;;;;;;95.70;24.20;;;;;;;-9.54;94.20;99390.77;103713;1305;25297;-28
2021/12/26 08:28:47;;;;;;;148.70;45.50;;;;;;;-9.33;93.82;99388.73;103695;1313;24239;-29
2021/12/26 08:31:15;;;;;;;71.60;27.40;;;;;;;-9.12;93.10;99388.63;103754;1311;24115;-29
2021/12/26 08:33:41;;;;;;;78.20;27.40;;;;;;;-8.86;93.39;99386.68;103712;1307;22439;-27
2021/12/26 08:36:07;;;;;;;125.00;36.70;;;;;;;-8.56;93.68;99392.29;103730;1314;24332;-25
2021/12/26 08:38:34;;;;;;;51.30;19.00;;;;;;;-8.19;93.71;99388.30;103745;1310;24122;-30
2021/12/26 08:41:00;;;;;;;77.10;18.60;;;;;;;-7.82;93.03;99386.90;103704;1314;24128;-29
2021/12/26 08:43:26;;;;;;;47.20;19.20;;;;;;;-7.49;92.39;99384.63;103760;1314;22475;-25
2021/12/26 08:45:52;;;;;;;101.80;30.10;;;;;;;-7.13;92.09;99391.15;103758;1315;24151;-26
2021/12/26 08:48:18;;;;;;;89.80;24.40;;;;;;;-6.72;90.48;99392.11;103728;1313;24249;-30
2021/12/26 08:50:44;;;;;;;108.60;38.70;;;;;;;-6.37;90.97;99391.52;103590;1312;22897;-25
2021/12/26 08:53:10;;;;;;;114.00;38.70;;;;;;;-6.30;91.67;99393.35;103781;1314;24141;-29
2021/12/26 08:55:37;;;;;;;175.20;60.50;;;;;;;-6.31;92.40;99399.34;103566;1307;24216;-26
2021/12/26 08:58:06;;;;;;;146.90;45.50;;;;;;;-6.08;91.08;99401.84;103813;1311;24273;-30
2021/12/26 09:00:32;;;;;;;118.80;44.90;;;;;;;-6.05;87.16;99406.38;103684;1312;24255;-26
2021/12/26 09:02:58;;;;;;;105.20;37.40;;;;;;;-5.84;88.33;99403.50;103728;1312;24153;-30
2021/12/26 09:05:24;;;;;;;92.30;32.70;;;;;;;-5.68;87.28;99398.13;103766;1312;24158;-26
2021/12/26 09:07:50;;;;;;;90.90;31.90;;;;;;;-5.43;88.74;99394.34;103726;1314;24281;-26
2021/12/26 09:10:16;;;;;;;84.30;27.70;;;;;;;-5.21;88.88;99388.26;103719;1310;24185;-30
2021/12/26 09:12:42;;;;;;;105.20;41.70;;;;;;;-4.93;89.31;99389.04;103743;1314;24392;-30
2021/12/26 09:15:09;;;;;;;123.30;49.50;;;;;;;-4.73;87.61;99391.08;103827;1313;24148;-26
2021/12/26 09:17:35;;;;;;;75.60;31.90;;;;;;;-4.50;89.72;99387.66;103776;1314;24302;-29
2021/12/26 09:20:00;;;;;;;66.80;20.50;;;;;;;-4.47;91.24;99389.34;103856;1314;24116;-29
2021/12/26 09:22:27;;;;;;;75.20;25.20;;;;;;;-4.48;90.51;99389.48;103788;1311;24150;-29
2021/12/26 09:24:52;;;;;;;94.80;39.10;;;;;;;-4.40;88.94;99384.04;103803;1313;24121;-26
2021/12/26 09:27:19;;;;;;;78.80;28.60;;;;;;;-4.29;89.95;99389.56;103778;1308;24129;-27
2021/12/26 09:29:45;;;;;;;77.10;29.40;;;;;;;-4.25;88.84;99386.14;103746;1312;24196;-25
2021/12/26 09:32:10;;;;;;;139.20;53.60;;;;;;;-4.35;89.69;99388.06;103805;1310;24226;-29
2021/12/26 09:34:37;;;;;;;158.10;59.20;;;;;;;-4.52;90.66;99391.27;103817;1313;24239;-29
2021/12/26 09:37:05;;;;;;;127.50;45.10;;;;;;;-4.62;89.55;99392.64;103719;1314;24161;-30
2021/12/26 09:39:31;;;;;;;71.20;22.50;;;;;;;-4.56;86.10;99387.33;103734;1311;23797;-25
2021/12/26 09:41:56;;;;;;;62.30;24.90;;;;;;;-4.31;89.20;99383.09;103702;1305;24120;-25
2021/12/26 09:44:22;;;;;;;59.40;21.30;;;;;;;-4.30;88.38;99380.88;103726;1310;24462;-26
2021/12/26 09:46:48;;;;;;;45.90;19.70;;;;;;;-4.07;91.14;99371.34;103741;1312;24241;-25
2021/12/26 09:49:14;;;;;;;42.40;16.50;;;;;;;-3.75;90.42;99369.80;103748;1310;24269;-27
2021/12/26 09:51:40;;;;;;;46.90;17.40;;;;;;;-3.48;87.03;99366.84;103739;1312;22613;-31
2021/12/26 09:54:07;;;;;;;35.90;14.50;;;;;;;-3.03;90.52;99368.73;103756;1314;24303;-29
2021/12/26 09:56:33;;;;;;;52.30;19.20;;;;;;;-2.81;89.67;99365.73;103579;1314;24120;-28
2021/12/26 09:59:02;;;;;;;32.40;12.80;;;;;;;-2.68;88.42;99368.30;103732;1314;24141;-31
2021/12/26 10:01:29;;;;;;;51.30;17.20;;;;;;;-2.69;81.58;99371.30;103769;1310;24207;-28
2021/12/26 10:03:56;;;;;;;96.40;24.60;;;;;;;-2.43;85.18;99366.05;103729;1310;22720;-24
2021/12/26 10:06:22;;;;;;;80.20;27.10;;;;;;;-2.19;87.06;99364.39;103786;1312;24257;-29
2021/12/26 10:08:55;;;;;;;59.30;23.50;;;;;;;-1.92;86.10;99360.73;103803;1314;22475;-30
2021/12/26 10:11:22;;;;;;;94.80;42.70;;;;;;;-1.60;89.00;99353.39;103774;1312;22466;-30
2021/12/26 10:13:52;;;;;;;61.20;26.80;;;;;;;-1.55;89.84;99355.61;103762;1312;24273;-26
2021/12/26 10:16:20;;;;;;;90.30;36.90;;;;;;;-1.63;83.58;99353.12;103736;1314;24246;-29
2021/12/26 10:18:46;;;;;;;42.50;17.70;;;;;;;-1.45;83.12;99353.73;103704;1313;24301;-26
2021/12/26 10:21:25;;;;;;;43.80;21.00;;;;;;;-1.19;87.94;99349.38;103727;1314;25266;-30
2021/12/26 10:23:51;;;;;;;106.60;31.30;;;;;;;-1.22;88.40;99351.79;103750;1312;24258;-25
2021/12/26 10:26:19;;;;;;;44.00;22.60;;;;;;;-1.33;87.68;99356.67;103719;1312;24251;-30
2021/12/26 10:28:52;;;;;;;105.70;36.80;;;;;;;-1.44;85.61;99358.05;103548;1313;22541;-26
2021/12/26 10:31:18;;;;;;;248.50;73.10;;;;;;;-1.14;85.45;99356.95;103735;1313;24151;-29
2021/12/26 10:33:48;;;;;;;238.60;84.20;;;;;;;-0.91;86.00;99354.70;103772;1312;24322;-30
2021/12/26 10:36:14;;;;;;;146.70;75.70;;;;;;;-0.84;82.86;99353.93;103809;1310;24207;-30
2021/12/26 10:38:40;;;;;;;132.90;52.00;;;;;;;-0.57;84.88;99353.49;103749;1313;22594;-26
2021/12/26 10:41:23;;;;;;;96.90;29.90;;;;;;;-0.36;85.93;99356.84;103682;1310;24215;-30
2021/12/26 10:43:48;;;;;;;43.70;21.60;;;;;;;-0.39;81.86;99349.41;104044;1313;25373;-30
2021/12/26 10:46:14;;;;;;;59.00;24.80;;;;;;;-0.27;80.66;99353.82;103988;1314;24138;-30
2021/12/26 10:48:40;;;;;;;86.40;27.60;;;;;;;0.02;82.44;99349.64;103988;1305;24262;-27
2021/12/26 10:51:06;;;;;;;43.40;19.20;;;;;;;0.24;78.48;99351.41;103807;1312;24206;-26
2021/12/26 10:53:32;;;;;;;58.50;19.90;;;;;;;0.43;79.76;99353.31;103674;1312;24133;-26
2021/12/26 10:55:58;;;;;;;51.00;22.30;;;;;;;0.81;84.00;99351.70;103611;1313;24308;-26
2021/12/26 10:58:25;;;;;;;48.30;18.00;;;;;;;1.12;84.91;99351.82;103820;1313;24218;-25
2021/12/26 11:00:55;;;;;;;46.50;22.30;;;;;;;1.19;78.89;99351.35;103754;1314;24205;-30